sensor_id;sensor_type;location;lat;lon;timestamp;temperature;humidity
13268;DHT22;6702;47.068;15.458;2022-12-20T00:02:17;1.10;99.90
13268;DHT22;6702;47.068;15.458;2022-12-20T00:05:21;1.10;99.90
13268;DHT22;6702;47.068;15.458;2022-12-20T00:08:24;1.20;99.90
13268;DHT22;6702;47.068;15.458;2022-12-20T00:11:29;1.30;99.90
13268;DHT22;6702;47.068;15.458;2022-12-20T00:14:32;1.20;99.90
13268;DHT22;6702;47.068;15.458;2022-12-20T00:17:35;1.30;99.90
13268;DHT22;6702;47.068;15.458;2022-12-20T00:20:38;1.20;99.90
13268;DHT22;6702;47.068;15.458;2022-12-20T00:23:41;1.20;99.90
13268;DHT22;6702;47.068;15.458;2022-12-20T00:26:46;1.20;99.90
13268;DHT22;6702;47.068;15.458;2022-12-20T00:29:49;1.30;99.90
13268;DHT22;6702;47.068;15.458;2022-12-20T00:32:52;1.30;99.90
13268;DHT22;6702;47.068;15.458;2022-12-20T00:35:56;1.30;99.90
13268;DHT22;6702;47.068;15.458;2022-12-20T00:38:59;1.20;99.90
13268;DHT22;6702;47.068;15.458;2022-12-20T00:42:04;1.20;99.90
13268;DHT22;6702;47.068;15.458;2022-12-20T00:45:08;1.20;99.90
13268;DHT22;6702;47.068;15.458;2022-12-20T00:48:12;1.20;99.90
13268;DHT22;6702;47.068;15.458;2022-12-20T00:51:17;1.20;99.90
13268;DHT22;6702;47.068;15.458;2022-12-20T00:54:20;1.20;99.90
13268;DHT22;6702;47.068;15.458;2022-12-20T00:57:25;1.30;99.90
13268;DHT22;6702;47.068;15.458;2022-12-20T01:00:28;1.20;99.90
13268;DHT22;6702;47.068;15.458;2022-12-20T01:03:31;1.20;99.90
13268;DHT22;6702;47.068;15.458;2022-12-20T01:06:35;1.20;99.90
13268;DHT22;6702;47.068;15.458;2022-12-20T01:09:39;1.20;99.90
13268;DHT22;6702;47.068;15.458;2022-12-20T01:12:43;1.30;99.90
13268;DHT22;6702;47.068;15.458;2022-12-20T01:15:47;1.40;99.90
13268;DHT22;6702;47.068;15.458;2022-12-20T01:18:50;1.30;99.90
13268;DHT22;6702;47.068;15.458;2022-12-20T01:21:53;1.30;99.90
13268;DHT22;6702;47.068;15.458;2022-12-20T01:24:56;1.30;99.90
13268;DHT22;6702;47.068;15.458;2022-12-20T01:28:01;1.30;99.90
13268;DHT22;6702;47.068;15.458;2022-12-20T01:31:05;1.20;99.90
13268;DHT22;6702;47.068;15.458;2022-12-20T01:34:09;1.20;99.90
13268;DHT22;6702;47.068;15.458;2022-12-20T01:37:12;1.20;99.90
13268;DHT22;6702;47.068;15.458;2022-12-20T01:40:15;1.20;99.90
13268;DHT22;6702;47.068;15.458;2022-12-20T01:43:21;1.20;99.90
13268;DHT22;6702;47.068;15.458;2022-12-20T01:46:25;1.20;99.90
13268;DHT22;6702;47.068;15.458;2022-12-20T01:49:31;1.10;99.90
13268;DHT22;6702;47.068;15.458;2022-12-20T01:52:37;1.20;99.90
13268;DHT22;6702;47.068;15.458;2022-12-20T01:55:41;1.10;99.90
13268;DHT22;6702;47.068;15.458;2022-12-20T01:58:47;1.10;99.90
13268;DHT22;6702;47.068;15.458;2022-12-20T02:01:51;1.10;99.90
13268;DHT22;6702;47.068;15.458;2022-12-20T02:04:54;1.00;99.90
13268;DHT22;6702;47.068;15.458;2022-12-20T02:07:57;1.10;99.90
13268;DHT22;6702;47.068;15.458;2022-12-20T02:11:11;1.10;99.90
13268;DHT22;6702;47.068;15.458;2022-12-20T02:14:31;1.10;99.90
13268;DHT22;6702;47.068;15.458;2022-12-20T02:17:44;1.10;99.90
13268;DHT22;6702;47.068;15.458;2022-12-20T02:24:46;1.10;99.90
13268;DHT22;6702;47.068;15.458;2022-12-20T02:27:59;1.10;99.90
13268;DHT22;6702;47.068;15.458;2022-12-20T02:31:09;1.10;99.90
13268;DHT22;6702;47.068;15.458;2022-12-20T02:34:14;1.10;99.90
13268;DHT22;6702;47.068;15.458;2022-12-20T02:37:18;1.10;99.90
13268;DHT22;6702;47.068;15.458;2022-12-20T02:40:23;1.00;99.90
13268;DHT22;6702;47.068;15.458;2022-12-20T02:43:28;1.10;99.90
13268;DHT22;6702;47.068;15.458;2022-12-20T02:46:52;1.00;99.90
13268;DHT22;6702;47.068;15.458;2022-12-20T02:49:56;1.00;99.90
13268;DHT22;6702;47.068;15.458;2022-12-20T02:52:59;1.00;99.90
13268;DHT22;6702;47.068;15.458;2022-12-20T02:56:08;0.90;99.90
13268;DHT22;6702;47.068;15.458;2022-12-20T02:59:16;0.90;99.90
13268;DHT22;6702;47.068;15.458;2022-12-20T03:02:23;0.90;99.90
13268;DHT22;6702;47.068;15.458;2022-12-20T03:05:27;0.80;99.90
13268;DHT22;6702;47.068;15.458;2022-12-20T03:08:30;0.90;99.90
13268;DHT22;6702;47.068;15.458;2022-12-20T03:11:33;1.00;99.90
13268;DHT22;6702;47.068;15.458;2022-12-20T03:14:37;1.10;99.90
13268;DHT22;6702;47.068;15.458;2022-12-20T03:17:41;1.10;99.90
13268;DHT22;6702;47.068;15.458;2022-12-20T03:20:44;1.10;99.90
13268;DHT22;6702;47.068;15.458;2022-12-20T03:23:47;1.20;99.90
13268;DHT22;6702;47.068;15.458;2022-12-20T03:26:51;1.20;99.90
13268;DHT22;6702;47.068;15.458;2022-12-20T03:29:54;1.10;99.90
13268;DHT22;6702;47.068;15.458;2022-12-20T03:32:59;1.20;99.90
13268;DHT22;6702;47.068;15.458;2022-12-20T03:36:02;1.20;99.90
13268;DHT22;6702;47.068;15.458;2022-12-20T03:39:05;1.20;99.90
13268;DHT22;6702;47.068;15.458;2022-12-20T03:42:08;1.10;99.90
13268;DHT22;6702;47.068;15.458;2022-12-20T03:45:11;1.10;99.90
13268;DHT22;6702;47.068;15.458;2022-12-20T03:48:16;1.20;99.90
13268;DHT22;6702;47.068;15.458;2022-12-20T03:51:19;1.20;99.90
13268;DHT22;6702;47.068;15.458;2022-12-20T03:54:22;1.20;99.90
13268;DHT22;6702;47.068;15.458;2022-12-20T03:57:25;1.20;99.90
13268;DHT22;6702;47.068;15.458;2022-12-20T04:00:29;1.10;99.90
13268;DHT22;6702;47.068;15.458;2022-12-20T04:03:33;1.10;99.90
13268;DHT22;6702;47.068;15.458;2022-12-20T04:06:36;1.20;99.90
13268;DHT22;6702;47.068;15.458;2022-12-20T04:09:39;1.20;99.90
13268;DHT22;6702;47.068;15.458;2022-12-20T04:12:43;1.20;99.90
13268;DHT22;6702;47.068;15.458;2022-12-20T04:15:46;1.20;99.90
13268;DHT22;6702;47.068;15.458;2022-12-20T04:18:50;1.20;99.90
13268;DHT22;6702;47.068;15.458;2022-12-20T04:21:53;1.10;99.90
13268;DHT22;6702;47.068;15.458;2022-12-20T04:25:06;1.10;99.90
13268;DHT22;6702;47.068;15.458;2022-12-20T04:28:09;1.20;99.90
13268;DHT22;6702;47.068;15.458;2022-12-20T04:31:12;1.20;99.90
13268;DHT22;6702;47.068;15.458;2022-12-20T04:34:25;1.10;99.90
13268;DHT22;6702;47.068;15.458;2022-12-20T04:37:29;1.00;99.90
13268;DHT22;6702;47.068;15.458;2022-12-20T04:40:32;0.90;99.90
13268;DHT22;6702;47.068;15.458;2022-12-20T04:43:35;1.00;99.90
13268;DHT22;6702;47.068;15.458;2022-12-20T04:46:38;1.00;99.90
13268;DHT22;6702;47.068;15.458;2022-12-20T04:49:43;1.00;99.90
13268;DHT22;6702;47.068;15.458;2022-12-20T04:52:46;1.10;99.90
13268;DHT22;6702;47.068;15.458;2022-12-20T04:56:07;1.00;99.90
13268;DHT22;6702;47.068;15.458;2022-12-20T04:59:10;1.00;99.90
13268;DHT22;6702;47.068;15.458;2022-12-20T05:02:14;1.00;99.90
13268;DHT22;6702;47.068;15.458;2022-12-20T05:05:19;1.00;99.90
13268;DHT22;6702;47.068;15.458;2022-12-20T05:08:22;1.10;99.90
13268;DHT22;6702;47.068;15.458;2022-12-20T05:11:25;1.10;99.90
13268;DHT22;6702;47.068;15.458;2022-12-20T05:14:28;1.20;99.90
13268;DHT22;6702;47.068;15.458;2022-12-20T05:17:31;1.20;99.90
13268;DHT22;6702;47.068;15.458;2022-12-20T05:20:36;1.20;99.90
13268;DHT22;6702;47.068;15.458;2022-12-20T05:23:39;1.10;99.90
13268;DHT22;6702;47.068;15.458;2022-12-20T05:27:00;1.10;99.90
13268;DHT22;6702;47.068;15.458;2022-12-20T05:30:04;1.20;99.90
13268;DHT22;6702;47.068;15.458;2022-12-20T05:33:07;1.20;99.90
13268;DHT22;6702;47.068;15.458;2022-12-20T05:36:12;1.20;99.90
13268;DHT22;6702;47.068;15.458;2022-12-20T05:39:15;1.20;99.90
13268;DHT22;6702;47.068;15.458;2022-12-20T05:42:18;1.10;99.90
13268;DHT22;6702;47.068;15.458;2022-12-20T05:45:22;1.10;99.90
13268;DHT22;6702;47.068;15.458;2022-12-20T05:48:25;1.10;99.90
13268;DHT22;6702;47.068;15.458;2022-12-20T05:51:29;1.10;99.90
13268;DHT22;6702;47.068;15.458;2022-12-20T05:54:33;1.20;99.90
13268;DHT22;6702;47.068;15.458;2022-12-20T05:57:36;1.20;99.90
13268;DHT22;6702;47.068;15.458;2022-12-20T06:00:39;1.20;99.90
13268;DHT22;6702;47.068;15.458;2022-12-20T06:03:42;1.10;99.90
13268;DHT22;6702;47.068;15.458;2022-12-20T06:06:48;1.00;99.90
13268;DHT22;6702;47.068;15.458;2022-12-20T06:09:51;1.00;99.90
13268;DHT22;6702;47.068;15.458;2022-12-20T06:12:54;1.00;99.90
13268;DHT22;6702;47.068;15.458;2022-12-20T06:15:57;1.10;99.90
13268;DHT22;6702;47.068;15.458;2022-12-20T06:19:01;1.10;99.90
13268;DHT22;6702;47.068;15.458;2022-12-20T06:22:06;1.20;99.90
13268;DHT22;6702;47.068;15.458;2022-12-20T06:25:09;1.30;99.90
13268;DHT22;6702;47.068;15.458;2022-12-20T06:28:13;1.30;99.90
13268;DHT22;6702;47.068;15.458;2022-12-20T06:31:17;1.20;99.90
13268;DHT22;6702;47.068;15.458;2022-12-20T06:34:21;1.10;99.90
13268;DHT22;6702;47.068;15.458;2022-12-20T06:37:25;1.10;99.90
13268;DHT22;6702;47.068;15.458;2022-12-20T06:40:29;1.10;99.90
13268;DHT22;6702;47.068;15.458;2022-12-20T06:43:32;1.10;99.90
13268;DHT22;6702;47.068;15.458;2022-12-20T06:46:35;1.20;99.90
13268;DHT22;6702;47.068;15.458;2022-12-20T06:49:38;1.20;99.90
13268;DHT22;6702;47.068;15.458;2022-12-20T06:52:43;1.30;99.90
13268;DHT22;6702;47.068;15.458;2022-12-20T06:55:47;1.30;99.90
13268;DHT22;6702;47.068;15.458;2022-12-20T06:58:50;1.30;99.90
13268;DHT22;6702;47.068;15.458;2022-12-20T07:01:54;1.40;99.90
13268;DHT22;6702;47.068;15.458;2022-12-20T07:04:57;1.30;99.90
13268;DHT22;6702;47.068;15.458;2022-12-20T07:08:03;1.30;99.90
13268;DHT22;6702;47.068;15.458;2022-12-20T07:11:07;1.30;99.90
13268;DHT22;6702;47.068;15.458;2022-12-20T07:14:10;1.10;99.90
13268;DHT22;6702;47.068;15.458;2022-12-20T07:17:13;1.10;99.90
13268;DHT22;6702;47.068;15.458;2022-12-20T07:20:17;1.10;99.90
13268;DHT22;6702;47.068;15.458;2022-12-20T07:23:22;1.20;99.90
13268;DHT22;6702;47.068;15.458;2022-12-20T07:26:26;1.20;99.90
13268;DHT22;6702;47.068;15.458;2022-12-20T07:29:30;1.20;99.90
13268;DHT22;6702;47.068;15.458;2022-12-20T07:32:33;1.30;99.90
13268;DHT22;6702;47.068;15.458;2022-12-20T07:35:36;1.40;99.90
13268;DHT22;6702;47.068;15.458;2022-12-20T07:38:40;1.50;99.90
13268;DHT22;6702;47.068;15.458;2022-12-20T07:41:44;1.40;99.90
13268;DHT22;6702;47.068;15.458;2022-12-20T07:44:47;1.50;99.90
13268;DHT22;6702;47.068;15.458;2022-12-20T07:47:50;1.50;99.90
13268;DHT22;6702;47.068;15.458;2022-12-20T07:50:56;1.30;99.90
13268;DHT22;6702;47.068;15.458;2022-12-20T07:54:03;1.30;99.90
13268;DHT22;6702;47.068;15.458;2022-12-20T07:57:12;1.40;99.90
13268;DHT22;6702;47.068;15.458;2022-12-20T08:00:16;1.50;99.90
13268;DHT22;6702;47.068;15.458;2022-12-20T08:03:22;1.50;99.90
13268;DHT22;6702;47.068;15.458;2022-12-20T08:06:29;1.50;99.90
13268;DHT22;6702;47.068;15.458;2022-12-20T08:09:37;1.50;99.90
13268;DHT22;6702;47.068;15.458;2022-12-20T08:12:42;1.60;99.90
13268;DHT22;6702;47.068;15.458;2022-12-20T08:15:46;1.60;99.90
13268;DHT22;6702;47.068;15.458;2022-12-20T08:18:50;1.60;99.90
13268;DHT22;6702;47.068;15.458;2022-12-20T08:21:53;1.60;99.90
13268;DHT22;6702;47.068;15.458;2022-12-20T08:24:58;1.60;99.90
13268;DHT22;6702;47.068;15.458;2022-12-20T08:28:01;1.60;99.90
13268;DHT22;6702;47.068;15.458;2022-12-20T08:31:06;1.60;99.90
13268;DHT22;6702;47.068;15.458;2022-12-20T08:34:10;1.70;99.90
13268;DHT22;6702;47.068;15.458;2022-12-20T08:37:15;1.70;99.90
13268;DHT22;6702;47.068;15.458;2022-12-20T08:40:20;1.60;99.90
13268;DHT22;6702;47.068;15.458;2022-12-20T08:43:23;1.50;99.90
13268;DHT22;6702;47.068;15.458;2022-12-20T08:46:26;1.50;99.90
13268;DHT22;6702;47.068;15.458;2022-12-20T08:49:29;1.50;99.90
13268;DHT22;6702;47.068;15.458;2022-12-20T08:52:32;1.50;99.90
13268;DHT22;6702;47.068;15.458;2022-12-20T08:55:37;1.40;99.90
13268;DHT22;6702;47.068;15.458;2022-12-20T08:58:42;1.30;99.90
13268;DHT22;6702;47.068;15.458;2022-12-20T09:01:46;1.30;99.90
13268;DHT22;6702;47.068;15.458;2022-12-20T09:04:49;1.40;99.90
13268;DHT22;6702;47.068;15.458;2022-12-20T09:07:53;1.50;99.90
13268;DHT22;6702;47.068;15.458;2022-12-20T09:11:04;1.50;99.90
13268;DHT22;6702;47.068;15.458;2022-12-20T09:14:08;1.50;99.90
13268;DHT22;6702;47.068;15.458;2022-12-20T09:17:11;1.60;99.90
13268;DHT22;6702;47.068;15.458;2022-12-20T09:20:14;1.60;99.90
13268;DHT22;6702;47.068;15.458;2022-12-20T09:23:18;1.60;99.90
13268;DHT22;6702;47.068;15.458;2022-12-20T09:26:23;1.60;99.90
13268;DHT22;6702;47.068;15.458;2022-12-20T09:29:26;1.60;99.90
13268;DHT22;6702;47.068;15.458;2022-12-20T09:32:36;1.60;99.90
13268;DHT22;6702;47.068;15.458;2022-12-20T09:35:44;1.60;99.90
13268;DHT22;6702;47.068;15.458;2022-12-20T09:38:47;1.50;99.90
13268;DHT22;6702;47.068;15.458;2022-12-20T09:41:52;1.40;99.90
13268;DHT22;6702;47.068;15.458;2022-12-20T09:45:00;1.20;99.90
13268;DHT22;6702;47.068;15.458;2022-12-20T09:48:07;1.30;99.90
13268;DHT22;6702;47.068;15.458;2022-12-20T09:51:19;1.30;99.90
13268;DHT22;6702;47.068;15.458;2022-12-20T09:54:31;1.30;99.90
13268;DHT22;6702;47.068;15.458;2022-12-20T09:57:48;1.30;99.90
13268;DHT22;6702;47.068;15.458;2022-12-20T10:00:52;1.30;99.90
13268;DHT22;6702;47.068;15.458;2022-12-20T10:03:57;1.40;99.90
13268;DHT22;6702;47.068;15.458;2022-12-20T10:07:16;1.40;99.90
13268;DHT22;6702;47.068;15.458;2022-12-20T10:10:50;1.40;99.90
13268;DHT22;6702;47.068;15.458;2022-12-20T10:14:00;1.50;99.90
13268;DHT22;6702;47.068;15.458;2022-12-20T10:17:13;1.50;99.90
13268;DHT22;6702;47.068;15.458;2022-12-20T10:20:33;1.50;99.90
13268;DHT22;6702;47.068;15.458;2022-12-20T10:23:45;1.60;99.90
13268;DHT22;6702;47.068;15.458;2022-12-20T10:26:53;1.70;99.90
13268;DHT22;6702;47.068;15.458;2022-12-20T10:29:58;1.70;99.90
13268;DHT22;6702;47.068;15.458;2022-12-20T10:33:01;1.70;99.90
13268;DHT22;6702;47.068;15.458;2022-12-20T10:36:17;1.80;99.90
13268;DHT22;6702;47.068;15.458;2022-12-20T10:39:39;1.80;99.90
13268;DHT22;6702;47.068;15.458;2022-12-20T10:42:43;1.90;99.90
13268;DHT22;6702;47.068;15.458;2022-12-20T10:45:56;1.90;99.90
13268;DHT22;6702;47.068;15.458;2022-12-20T10:49:29;2.00;99.90
13268;DHT22;6702;47.068;15.458;2022-12-20T10:52:33;2.00;99.90
13268;DHT22;6702;47.068;15.458;2022-12-20T10:55:38;2.10;99.90
13268;DHT22;6702;47.068;15.458;2022-12-20T10:58:42;2.10;99.90
13268;DHT22;6702;47.068;15.458;2022-12-20T11:01:54;2.10;99.90
13268;DHT22;6702;47.068;15.458;2022-12-20T11:04:59;2.10;99.90
13268;DHT22;6702;47.068;15.458;2022-12-20T11:08:11;2.10;99.90
13268;DHT22;6702;47.068;15.458;2022-12-20T11:11:34;2.00;99.90
13268;DHT22;6702;47.068;15.458;2022-12-20T11:14:38;2.00;99.90
13268;DHT22;6702;47.068;15.458;2022-12-20T11:17:46;2.00;99.90
13268;DHT22;6702;47.068;15.458;2022-12-20T11:20:58;2.00;99.90
13268;DHT22;6702;47.068;15.458;2022-12-20T11:24:10;2.00;99.90
13268;DHT22;6702;47.068;15.458;2022-12-20T11:27:33;2.10;99.90
13268;DHT22;6702;47.068;15.458;2022-12-20T11:30:45;2.00;99.90
13268;DHT22;6702;47.068;15.458;2022-12-20T11:34:05;1.80;99.90
13268;DHT22;6702;47.068;15.458;2022-12-20T11:37:20;1.70;99.90
13268;DHT22;6702;47.068;15.458;2022-12-20T11:40:30;1.20;99.90
13268;DHT22;6702;47.068;15.458;2022-12-20T11:43:50;1.20;99.90
13268;DHT22;6702;47.068;15.458;2022-12-20T11:47:30;1.40;99.90
13268;DHT22;6702;47.068;15.458;2022-12-20T11:50:56;1.60;99.90
13268;DHT22;6702;47.068;15.458;2022-12-20T11:54:08;1.70;99.90
13268;DHT22;6702;47.068;15.458;2022-12-20T11:57:16;1.60;99.90
13268;DHT22;6702;47.068;15.458;2022-12-20T12:00:20;1.60;99.90
13268;DHT22;6702;47.068;15.458;2022-12-20T12:03:33;1.60;99.90
13268;DHT22;6702;47.068;15.458;2022-12-20T12:06:40;1.60;99.90
13268;DHT22;6702;47.068;15.458;2022-12-20T12:09:52;1.50;99.90
13268;DHT22;6702;47.068;15.458;2022-12-20T12:13:02;1.50;99.90
13268;DHT22;6702;47.068;15.458;2022-12-20T12:16:09;1.50;99.90
13268;DHT22;6702;47.068;15.458;2022-12-20T12:19:14;1.50;99.90
13268;DHT22;6702;47.068;15.458;2022-12-20T12:22:23;1.50;99.90
13268;DHT22;6702;47.068;15.458;2022-12-20T12:25:30;1.50;99.90
13268;DHT22;6702;47.068;15.458;2022-12-20T12:28:33;1.50;99.90
13268;DHT22;6702;47.068;15.458;2022-12-20T12:31:41;1.60;99.90
13268;DHT22;6702;47.068;15.458;2022-12-20T12:34:56;1.60;99.90
13268;DHT22;6702;47.068;15.458;2022-12-20T12:38:25;1.50;99.90
13268;DHT22;6702;47.068;15.458;2022-12-20T12:41:56;1.40;99.90
13268;DHT22;6702;47.068;15.458;2022-12-20T12:45:04;1.40;99.90
13268;DHT22;6702;47.068;15.458;2022-12-20T12:48:14;1.50;99.90
13268;DHT22;6702;47.068;15.458;2022-12-20T12:51:23;1.50;99.90
13268;DHT22;6702;47.068;15.458;2022-12-20T12:54:34;1.60;99.90
13268;DHT22;6702;47.068;15.458;2022-12-20T12:57:54;1.60;99.90
13268;DHT22;6702;47.068;15.458;2022-12-20T13:00:59;1.60;99.90
13268;DHT22;6702;47.068;15.458;2022-12-20T13:04:22;1.60;99.90
13268;DHT22;6702;47.068;15.458;2022-12-20T13:07:28;1.60;99.90
13268;DHT22;6702;47.068;15.458;2022-12-20T13:11:11;1.60;99.90
13268;DHT22;6702;47.068;15.458;2022-12-20T13:17:55;1.30;99.90
13268;DHT22;6702;47.068;15.458;2022-12-20T13:21:36;1.30;99.90
13268;DHT22;6702;47.068;15.458;2022-12-20T13:24:53;1.40;99.90
13268;DHT22;6702;47.068;15.458;2022-12-20T13:31:35;1.50;99.90
13268;DHT22;6702;47.068;15.458;2022-12-20T13:34:52;1.50;99.90
13268;DHT22;6702;47.068;15.458;2022-12-20T13:37:57;1.50;99.90
13268;DHT22;6702;47.068;15.458;2022-12-20T13:41:12;1.50;99.90
13268;DHT22;6702;47.068;15.458;2022-12-20T13:44:41;1.50;99.90
13268;DHT22;6702;47.068;15.458;2022-12-20T13:47:50;1.50;99.90
13268;DHT22;6702;47.068;15.458;2022-12-20T13:50:56;1.50;99.90
13268;DHT22;6702;47.068;15.458;2022-12-20T13:54:01;1.50;99.90
13268;DHT22;6702;47.068;15.458;2022-12-20T13:57:05;1.40;99.90
13268;DHT22;6702;47.068;15.458;2022-12-20T14:00:15;1.40;99.90
13268;DHT22;6702;47.068;15.458;2022-12-20T14:03:22;1.30;99.90
13268;DHT22;6702;47.068;15.458;2022-12-20T14:06:26;1.30;99.90
13268;DHT22;6702;47.068;15.458;2022-12-20T14:09:32;1.40;99.90
13268;DHT22;6702;47.068;15.458;2022-12-20T14:12:36;1.40;99.90
13268;DHT22;6702;47.068;15.458;2022-12-20T14:15:44;1.50;99.90
13268;DHT22;6702;47.068;15.458;2022-12-20T14:18:49;1.50;99.90
13268;DHT22;6702;47.068;15.458;2022-12-20T14:21:53;1.50;99.90
13268;DHT22;6702;47.068;15.458;2022-12-20T14:24:57;1.50;99.90
13268;DHT22;6702;47.068;15.458;2022-12-20T14:28:00;1.50;99.90
13268;DHT22;6702;47.068;15.458;2022-12-20T14:31:05;1.40;99.90
13268;DHT22;6702;47.068;15.458;2022-12-20T14:34:15;1.40;99.90
13268;DHT22;6702;47.068;15.458;2022-12-20T14:37:31;1.50;99.90
13268;DHT22;6702;47.068;15.458;2022-12-20T14:40:40;1.40;99.90
13268;DHT22;6702;47.068;15.458;2022-12-20T14:43:43;1.40;99.90
13268;DHT22;6702;47.068;15.458;2022-12-20T14:46:48;1.40;99.90
13268;DHT22;6702;47.068;15.458;2022-12-20T14:49:56;1.20;99.90
13268;DHT22;6702;47.068;15.458;2022-12-20T14:53:01;1.20;99.90
13268;DHT22;6702;47.068;15.458;2022-12-20T14:56:11;1.20;99.90
13268;DHT22;6702;47.068;15.458;2022-12-20T14:59:16;1.30;99.90
13268;DHT22;6702;47.068;15.458;2022-12-20T15:02:39;1.30;99.90
13268;DHT22;6702;47.068;15.458;2022-12-20T15:05:49;1.40;99.90
13268;DHT22;6702;47.068;15.458;2022-12-20T15:08:52;1.40;99.90
13268;DHT22;6702;47.068;15.458;2022-12-20T15:11:57;1.40;99.90
13268;DHT22;6702;47.068;15.458;2022-12-20T15:15:01;1.40;99.90
13268;DHT22;6702;47.068;15.458;2022-12-20T15:18:24;1.30;99.90
13268;DHT22;6702;47.068;15.458;2022-12-20T15:21:31;1.20;99.90
13268;DHT22;6702;47.068;15.458;2022-12-20T15:24:35;1.20;99.90
13268;DHT22;6702;47.068;15.458;2022-12-20T15:27:38;1.30;99.90
13268;DHT22;6702;47.068;15.458;2022-12-20T15:30:41;1.30;99.90
13268;DHT22;6702;47.068;15.458;2022-12-20T15:33:45;1.20;99.90
13268;DHT22;6702;47.068;15.458;2022-12-20T15:36:50;1.30;99.90
13268;DHT22;6702;47.068;15.458;2022-12-20T15:39:53;1.30;99.90
13268;DHT22;6702;47.068;15.458;2022-12-20T15:42:56;1.30;99.90
13268;DHT22;6702;47.068;15.458;2022-12-20T15:45:59;1.30;99.90
13268;DHT22;6702;47.068;15.458;2022-12-20T15:49:03;1.30;99.90
13268;DHT22;6702;47.068;15.458;2022-12-20T15:52:10;1.30;99.90
13268;DHT22;6702;47.068;15.458;2022-12-20T15:55:18;1.30;99.90
13268;DHT22;6702;47.068;15.458;2022-12-20T15:58:21;1.40;99.90
13268;DHT22;6702;47.068;15.458;2022-12-20T16:01:27;1.40;99.90
13268;DHT22;6702;47.068;15.458;2022-12-20T16:04:40;1.40;99.90
13268;DHT22;6702;47.068;15.458;2022-12-20T16:07:45;1.30;99.90
13268;DHT22;6702;47.068;15.458;2022-12-20T16:10:50;1.30;99.90
13268;DHT22;6702;47.068;15.458;2022-12-20T16:13:54;1.20;99.90
13268;DHT22;6702;47.068;15.458;2022-12-20T16:16:58;1.20;99.90
13268;DHT22;6702;47.068;15.458;2022-12-20T16:20:01;1.20;99.90
13268;DHT22;6702;47.068;15.458;2022-12-20T16:23:13;1.30;99.90
13268;DHT22;6702;47.068;15.458;2022-12-20T16:26:19;1.30;99.90
13268;DHT22;6702;47.068;15.458;2022-12-20T16:29:22;1.20;99.90
13268;DHT22;6702;47.068;15.458;2022-12-20T16:32:25;1.30;99.90
13268;DHT22;6702;47.068;15.458;2022-12-20T16:35:30;1.30;99.90
13268;DHT22;6702;47.068;15.458;2022-12-20T16:38:35;1.30;99.90
13268;DHT22;6702;47.068;15.458;2022-12-20T16:41:39;1.40;99.90
13268;DHT22;6702;47.068;15.458;2022-12-20T16:44:44;1.30;99.90
13268;DHT22;6702;47.068;15.458;2022-12-20T16:47:49;1.30;99.90
13268;DHT22;6702;47.068;15.458;2022-12-20T16:50:53;1.40;99.90
13268;DHT22;6702;47.068;15.458;2022-12-20T16:54:01;1.40;99.90
13268;DHT22;6702;47.068;15.458;2022-12-20T16:57:20;1.20;99.90
13268;DHT22;6702;47.068;15.458;2022-12-20T17:00:25;1.20;99.90
13268;DHT22;6702;47.068;15.458;2022-12-20T17:03:29;1.30;99.90
13268;DHT22;6702;47.068;15.458;2022-12-20T17:06:32;1.40;99.90
13268;DHT22;6702;47.068;15.458;2022-12-20T17:09:37;1.30;99.90
13268;DHT22;6702;47.068;15.458;2022-12-20T17:12:58;1.30;99.90
13268;DHT22;6702;47.068;15.458;2022-12-20T17:16:02;1.40;99.90
13268;DHT22;6702;47.068;15.458;2022-12-20T17:19:06;1.40;99.90
13268;DHT22;6702;47.068;15.458;2022-12-20T17:22:10;1.50;99.90
13268;DHT22;6702;47.068;15.458;2022-12-20T17:25:35;1.50;99.90
13268;DHT22;6702;47.068;15.458;2022-12-20T17:28:38;1.50;99.90
13268;DHT22;6702;47.068;15.458;2022-12-20T17:31:42;1.50;99.90
13268;DHT22;6702;47.068;15.458;2022-12-20T17:34:46;1.50;99.90
13268;DHT22;6702;47.068;15.458;2022-12-20T17:37:49;1.50;99.90
13268;DHT22;6702;47.068;15.458;2022-12-20T17:40:57;1.50;99.90
13268;DHT22;6702;47.068;15.458;2022-12-20T17:44:01;1.50;99.90
13268;DHT22;6702;47.068;15.458;2022-12-20T17:47:05;1.50;99.90
13268;DHT22;6702;47.068;15.458;2022-12-20T17:50:08;1.50;99.90
13268;DHT22;6702;47.068;15.458;2022-12-20T17:53:12;1.50;99.90
13268;DHT22;6702;47.068;15.458;2022-12-20T17:56:19;1.50;99.90
13268;DHT22;6702;47.068;15.458;2022-12-20T17:59:22;1.60;99.90
13268;DHT22;6702;47.068;15.458;2022-12-20T18:02:26;1.60;99.90
13268;DHT22;6702;47.068;15.458;2022-12-20T18:05:30;1.50;99.90
13268;DHT22;6702;47.068;15.458;2022-12-20T18:08:33;1.60;99.90
13268;DHT22;6702;47.068;15.458;2022-12-20T18:11:38;1.60;99.90
13268;DHT22;6702;47.068;15.458;2022-12-20T18:14:41;1.70;99.90
13268;DHT22;6702;47.068;15.458;2022-12-20T18:17:44;1.70;99.90
13268;DHT22;6702;47.068;15.458;2022-12-20T18:20:47;1.70;99.90
13268;DHT22;6702;47.068;15.458;2022-12-20T18:23:51;1.70;99.90
13268;DHT22;6702;47.068;15.458;2022-12-20T18:26:56;1.70;99.90
13268;DHT22;6702;47.068;15.458;2022-12-20T18:30:00;1.60;99.90
13268;DHT22;6702;47.068;15.458;2022-12-20T18:33:04;1.60;99.90
13268;DHT22;6702;47.068;15.458;2022-12-20T18:36:10;1.50;99.90
13268;DHT22;6702;47.068;15.458;2022-12-20T18:39:13;1.60;99.90
13268;DHT22;6702;47.068;15.458;2022-12-20T18:42:18;1.60;99.90
13268;DHT22;6702;47.068;15.458;2022-12-20T18:45:22;1.70;99.90
13268;DHT22;6702;47.068;15.458;2022-12-20T18:48:26;1.70;99.90
13268;DHT22;6702;47.068;15.458;2022-12-20T18:51:31;1.80;99.90
13268;DHT22;6702;47.068;15.458;2022-12-20T18:54:38;1.70;99.90
13268;DHT22;6702;47.068;15.458;2022-12-20T18:57:43;1.80;99.90
13268;DHT22;6702;47.068;15.458;2022-12-20T19:00:51;1.70;99.90
13268;DHT22;6702;47.068;15.458;2022-12-20T19:03:55;1.80;99.90
13268;DHT22;6702;47.068;15.458;2022-12-20T19:06:58;1.80;99.90
13268;DHT22;6702;47.068;15.458;2022-12-20T19:10:02;1.80;99.90
13268;DHT22;6702;47.068;15.458;2022-12-20T19:13:08;1.80;99.90
13268;DHT22;6702;47.068;15.458;2022-12-20T19:16:15;1.70;99.90
13268;DHT22;6702;47.068;15.458;2022-12-20T19:19:19;1.70;99.90
13268;DHT22;6702;47.068;15.458;2022-12-20T19:22:23;1.60;99.90
13268;DHT22;6702;47.068;15.458;2022-12-20T19:25:27;1.50;99.90
13268;DHT22;6702;47.068;15.458;2022-12-20T19:28:33;1.40;99.90
13268;DHT22;6702;47.068;15.458;2022-12-20T19:31:37;1.40;99.90
13268;DHT22;6702;47.068;15.458;2022-12-20T19:34:42;1.30;99.90
13268;DHT22;6702;47.068;15.458;2022-12-20T19:37:46;1.30;99.90
13268;DHT22;6702;47.068;15.458;2022-12-20T19:40:52;1.30;99.90
13268;DHT22;6702;47.068;15.458;2022-12-20T19:43:58;1.30;99.90
13268;DHT22;6702;47.068;15.458;2022-12-20T19:47:02;1.20;99.90
13268;DHT22;6702;47.068;15.458;2022-12-20T19:50:07;1.30;99.90
13268;DHT22;6702;47.068;15.458;2022-12-20T19:53:11;1.30;99.90
13268;DHT22;6702;47.068;15.458;2022-12-20T19:56:17;1.30;99.90
13268;DHT22;6702;47.068;15.458;2022-12-20T19:59:23;1.40;99.90
13268;DHT22;6702;47.068;15.458;2022-12-20T20:02:27;1.50;99.90
13268;DHT22;6702;47.068;15.458;2022-12-20T20:05:33;1.50;99.90
13268;DHT22;6702;47.068;15.458;2022-12-20T20:08:37;1.50;99.90